Time,TemperatureF,DewpointF,PressureIn,WindDirection,WindDirectionDegrees,WindSpeedMPH,WindSpeedGustMPH,Humidity,HourlyPrecipIn,Conditions,Clouds,dailyrainin,SoftwareType,DateUTC
2013-01-11 00:04:00,62.5,60.8,30.09,South,183,0.0,2.0,94,0.00,,FEW025,0.00,VWS V13.01,2013-01-11 06:04:00,
2013-01-11 00:09:00,62.5,60.8,30.10,South,183,0.0,2.0,94,0.00,,FEW025,0.00,VWS V13.01,2013-01-11 06:09:00,
2013-01-11 00:14:00,62.6,60.8,30.10,South,181,1.0,3.0,94,0.00,,FEW025,0.00,VWS V13.01,2013-01-11 06:14:00,
2013-01-11 00:19:00,62.7,61.0,30.10,SSW,194,0.0,4.0,94,0.00,,FEW025,0.00,VWS V13.01,2013-01-11 06:19:00,
2013-01-11 00:25:00,62.8,61.0,30.09,SSE,165,0.0,4.0,94,0.00,,FEW025,0.00,VWS V13.01,2013-01-11 06:25:00,
2013-01-11 00:30:00,62.9,61.5,30.09,South,172,0.0,4.0,95,0.00,,FEW025,0.00,VWS V13.01,2013-01-11 06:30:00,
2013-01-11 00:35:00,63.0,61.5,30.09,SSE,159,0.0,2.0,95,0.00,,FEW025,0.00,VWS V13.01,2013-01-11 06:35:00,
2013-01-11 00:40:00,63.2,61.8,30.10,South,188,0.0,3.0,95,0.00,,FEW025,0.00,VWS V13.01,2013-01-11 06:40:00,
2013-01-11 00:45:00,63.2,61.8,30.09,South,190,0.0,3.0,95,0.00,,FEW025,0.00,VWS V13.01,2013-01-11 06:45:00,
2013-01-11 00:50:00,63.2,61.8,30.10,SSW,192,3.0,3.0,95,0.00,,FEW025,0.00,VWS V13.01,2013-01-11 06:50:00,
2013-01-11 00:55:00,63.3,61.8,30.09,SSW,192,0.0,3.0,95,0.00,,FEW025,0.00,VWS V13.01,2013-01-11 06:55:00,
2013-01-11 01:00:00,63.4,62.0,30.09,SSW,192,0.0,3.0,95,0.00,,FEW030,0.00,VWS V13.01,2013-01-11 07:00:00,
2013-01-11 01:05:00,63.4,62.0,30.09,SSW,192,0.0,3.0,95,0.00,,FEW030,0.00,VWS V13.01,2013-01-11 07:05:00,
2013-01-11 01:10:00,63.5,62.0,30.09,SSW,192,0.0,3.0,95,0.00,,FEW030,0.00,VWS V13.01,2013-01-11 07:10:00,
2013-01-11 01:15:00,63.5,62.0,30.09,SSW,192,0.0,3.0,95,0.00,,FEW030,0.00,VWS V13.01,2013-01-11 07:15:00,
2013-01-11 01:21:00,63.4,62.2,30.09,South,190,0.0,3.0,96,0.00,,FEW030,0.00,VWS V13.01,2013-01-11 07:21:00,
2013-01-11 01:26:00,63.5,62.3,30.09,South,182,0.0,3.0,96,0.00,,FEW030,0.00,VWS V13.01,2013-01-11 07:26:00,
2013-01-11 01:31:00,63.7,62.5,30.09,South,171,0.0,4.0,96,0.00,,BKN008,0.00,VWS V13.01,2013-01-11 07:31:00,
2013-01-11 01:36:00,63.8,62.6,30.09,SSE,156,1.0,5.0,96,0.00,,BKN008,0.00,VWS V13.01,2013-01-11 07:36:00,
2013-01-11 01:41:00,63.9,62.7,30.08,SSE,156,0.0,5.0,96,0.00,,BKN008,0.00,VWS V13.01,2013-01-11 07:41:00,
2013-01-11 01:46:00,63.9,62.7,30.08,SSE,156,0.0,5.0,96,0.00,,BKN008,0.00,VWS V13.01,2013-01-11 07:46:00,
2013-01-11 01:51:00,64.0,62.8,30.08,SSE,150,0.0,5.0,96,0.00,,BKN008,0.00,VWS V13.01,2013-01-11 07:51:00,
2013-01-11 01:56:00,64.1,62.9,30.08,SSE,151,0.0,5.0,96,0.00,,BKN008,0.00,VWS V13.01,2013-01-11 07:56:00,
2013-01-11 02:01:00,64.1,62.9,30.08,SSE,153,0.0,0.0,96,0.00,,OVC006,0.00,VWS V13.01,2013-01-11 08:01:00,
2013-01-11 02:07:00,64.2,63.0,30.07,SSE,155,2.0,3.0,96,0.00,,OVC006,0.00,VWS V13.01,2013-01-11 08:07:00,
2013-01-11 02:12:00,64.3,63.1,30.07,SSE,155,0.0,3.0,96,0.00,,OVC006,0.00,VWS V13.01,2013-01-11 08:12:00,
2013-01-11 02:17:00,64.3,63.1,30.07,SSE,155,0.0,0.0,96,0.00,,OVC006,0.00,VWS V13.01,2013-01-11 08:17:00,
2013-01-11 02:22:00,64.3,63.1,30.07,SSE,153,2.0,3.0,96,0.00,,OVC006,0.00,VWS V13.01,2013-01-11 08:22:00,
2013-01-11 02:27:00,64.3,63.1,30.06,SSE,149,0.0,5.0,96,0.00,,OVC006,0.00,VWS V13.01,2013-01-11 08:27:00,
2013-01-11 02:32:00,64.3,63.1,30.06,SSE,149,0.0,0.0,96,0.00,,OVC006,0.00,VWS V13.01,2013-01-11 08:32:00,
2013-01-11 02:37:00,64.3,63.1,30.06,SSE,149,0.0,2.0,96,0.00,,OVC006,0.00,VWS V13.01,2013-01-11 08:37:00,
2013-01-11 02:42:00,64.2,63.0,30.06,SSE,149,0.0,2.0,96,0.00,,OVC006,0.00,VWS V13.01,2013-01-11 08:42:00,
2013-01-11 02:47:00,64.1,62.9,30.06,SSE,149,0.0,0.0,96,0.00,,OVC006,0.00,VWS V13.01,2013-01-11 08:47:00,
2013-01-11 02:52:00,64.1,62.9,30.06,SSE,149,0.0,0.0,96,0.00,,OVC006,0.00,VWS V13.01,2013-01-11 08:52:00,
2013-01-11 02:58:00,64.0,62.8,30.06,SSE,149,0.0,0.0,96,0.00,,OVC006,0.00,VWS V13.01,2013-01-11 08:58:00,
2013-01-11 03:03:00,64.0,62.8,30.06,SSE,149,0.0,1.0,96,0.00,,SCT070,0.00,VWS V13.01,2013-01-11 09:03:00,
2013-01-11 03:08:00,63.9,62.7,30.06,SSE,149,0.0,2.0,96,0.00,,SCT070,0.00,VWS V13.01,2013-01-11 09:08:00,
2013-01-11 03:13:00,63.9,62.7,30.06,SSE,149,0.0,2.0,96,0.00,,SCT070,0.00,VWS V13.01,2013-01-11 09:13:00,
2013-01-11 03:18:00,63.9,62.7,30.06,SSE,149,0.0,0.0,96,0.00,,SCT070,0.00,VWS V13.01,2013-01-11 09:18:00,
2013-01-11 03:23:00,63.9,62.7,30.06,SSE,149,0.0,2.0,96,0.00,,SCT070,0.00,VWS V13.01,2013-01-11 09:23:00,
2013-01-11 03:28:00,63.9,62.7,30.06,SSE,149,0.0,2.0,96,0.00,,SCT070,0.00,VWS V13.01,2013-01-11 09:28:00,
2013-01-11 03:33:00,63.9,62.7,30.05,SSE,149,0.0,0.0,96,0.00,,SCT070,0.00,VWS V13.01,2013-01-11 09:33:00,
2013-01-11 03:38:00,63.8,62.6,30.05,SSE,149,0.0,0.0,96,0.00,,SCT070,0.00,VWS V13.01,2013-01-11 09:38:00,
2013-01-11 03:44:00,63.8,62.6,30.05,SSE,149,0.0,0.0,96,0.00,,SCT070,0.00,VWS V13.01,2013-01-11 09:44:00,
2013-01-11 03:49:00,63.8,62.6,30.05,SSE,149,0.0,0.0,96,0.00,,SCT070,0.00,VWS V13.01,2013-01-11 09:49:00,
2013-01-11 03:54:00,63.7,62.5,30.05,SSE,149,0.0,0.0,96,0.00,,SCT070,0.00,VWS V13.01,2013-01-11 09:54:00,
2013-01-11 03:59:00,63.6,62.4,30.05,SSE,149,0.0,0.0,96,0.00,,SCT070,0.00,VWS V13.01,2013-01-11 09:59:00,
2013-01-11 04:04:00,63.5,62.3,30.05,SSE,149,0.0,0.0,96,0.00,,SCT070,0.00,VWS V13.01,2013-01-11 10:04:00,
2013-01-11 04:09:00,63.4,62.2,30.05,SSE,149,0.0,0.0,96,0.00,,SCT070,0.00,VWS V13.01,2013-01-11 10:09:00,
2013-01-11 04:14:00,63.3,62.1,30.05,SSE,149,0.0,0.0,96,0.00,,SCT070,0.00,VWS V13.01,2013-01-11 10:14:00,
2013-01-11 04:19:00,63.3,62.1,30.05,SSE,149,0.0,0.0,96,0.00,,SCT070,0.00,VWS V13.01,2013-01-11 10:19:00,
2013-01-11 04:24:00,63.2,62.0,30.05,SSE,149,0.0,0.0,96,0.00,,SCT070,0.00,VWS V13.01,2013-01-11 10:24:00,
2013-01-11 04:29:00,63.2,62.0,30.06,SSE,149,0.0,0.0,96,0.00,,SCT070,0.00,VWS V13.01,2013-01-11 10:29:00,
2013-01-11 04:34:00,63.2,62.0,30.06,SSE,149,0.0,0.0,96,0.00,,SCT070,0.00,VWS V13.01,2013-01-11 10:34:00,
2013-01-11 04:39:00,63.2,62.0,30.05,SSE,149,0.0,0.0,96,0.00,,SCT070,0.00,VWS V13.01,2013-01-11 10:39:00,
2013-01-11 04:44:00,63.2,62.0,30.06,SSE,149,0.0,0.0,96,0.00,,SCT070,0.00,VWS V13.01,2013-01-11 10:44:00,
2013-01-11 04:49:00,63.2,62.3,30.06,SSE,149,0.0,0.0,97,0.00,,SCT070,0.00,VWS V13.01,2013-01-11 10:49:00,
2013-01-11 04:54:00,63.2,62.3,30.06,SSE,149,0.0,0.0,97,0.00,,SCT070,0.00,VWS V13.01,2013-01-11 10:54:00,
2013-01-11 04:59:00,63.3,62.4,30.06,SSE,149,0.0,0.0,97,0.00,,SCT070,0.00,VWS V13.01,2013-01-11 10:59:00,
2013-01-11 05:04:00,63.2,62.3,30.06,SSE,149,0.0,0.0,97,0.00,,OVC060,0.00,VWS V13.01,2013-01-11 11:04:00,
2013-01-11 05:09:00,63.1,62.2,30.06,SSE,149,0.0,0.0,97,0.00,,OVC060,0.00,VWS V13.01,2013-01-11 11:09:00,
2013-01-11 05:15:00,63.1,62.2,30.06,SSE,149,0.0,0.0,97,0.00,,OVC060,0.00,VWS V13.01,2013-01-11 11:15:00,
2013-01-11 05:20:00,63.2,62.3,30.06,SSE,149,0.0,0.0,97,0.00,,OVC060,0.00,VWS V13.01,2013-01-11 11:20:00,
2013-01-11 05:25:00,63.3,62.4,30.06,SSE,149,0.0,0.0,97,0.00,,OVC060,0.00,VWS V13.01,2013-01-11 11:25:00,
2013-01-11 05:30:00,63.3,62.4,30.06,SSE,149,0.0,0.0,97,0.00,,OVC060,0.00,VWS V13.01,2013-01-11 11:30:00,
2013-01-11 05:35:00,63.3,62.4,30.06,SSE,149,0.0,0.0,97,0.00,,OVC060,0.00,VWS V13.01,2013-01-11 11:35:00,
2013-01-11 05:40:00,63.4,62.5,30.07,SSE,149,0.0,2.0,97,0.00,,OVC060,0.00,VWS V13.01,2013-01-11 11:40:00,
2013-01-11 05:45:00,63.6,62.7,30.07,SSE,149,0.0,2.0,97,0.00,,OVC060,0.00,VWS V13.01,2013-01-11 11:45:00,
2013-01-11 05:50:00,63.8,62.9,30.07,SSE,149,0.0,1.0,97,0.00,,OVC060,0.00,VWS V13.01,2013-01-11 11:50:00,
2013-01-11 05:55:00,63.8,62.9,30.07,SSE,149,0.0,1.0,97,0.00,,OVC060,0.00,VWS V13.01,2013-01-11 11:55:00,
2013-01-11 06:00:00,63.9,63.0,30.07,SSE,149,0.0,2.0,97,0.00,,OVC060,0.00,VWS V13.01,2013-01-11 12:00:00,
2013-01-11 06:05:00,64.1,63.2,30.07,SSE,149,0.0,3.0,97,0.00,,OVC075,0.00,VWS V13.01,2013-01-11 12:05:00,
2013-01-11 06:10:00,64.2,63.3,30.08,SSE,149,0.0,3.0,97,0.00,,OVC075,0.00,VWS V13.01,2013-01-11 12:10:00,
2013-01-11 06:15:00,64.4,63.5,30.08,SW,215,3.0,5.0,97,0.00,,OVC075,0.00,VWS V13.01,2013-01-11 12:15:00,
2013-01-11 06:20:00,64.7,63.8,30.08,SSW,198,0.0,4.0,97,0.00,,OVC075,0.00,VWS V13.01,2013-01-11 12:20:00,
2013-01-11 06:25:00,65.0,64.1,30.08,SSW,199,0.0,4.0,97,0.00,,OVC075,0.00,VWS V13.01,2013-01-11 12:25:00,
2013-01-11 06:31:00,65.2,64.3,30.08,SSW,207,0.0,4.0,97,0.00,,OVC075,0.00,VWS V13.01,2013-01-11 12:31:00,
2013-01-11 06:36:00,65.4,64.2,30.08,South,190,0.0,4.0,96,0.00,,OVC075,0.00,VWS V13.01,2013-01-11 12:36:00,
2013-01-11 06:41:00,65.6,64.4,30.08,SSW,194,0.0,4.0,96,0.00,,OVC075,0.00,VWS V13.01,2013-01-11 12:41:00,
2013-01-11 06:46:00,65.7,64.5,30.08,South,188,0.0,4.0,96,0.00,,OVC075,0.00,VWS V13.01,2013-01-11 12:46:00,
2013-01-11 06:51:00,65.7,64.5,30.08,South,188,0.0,3.0,96,0.00,,OVC075,0.00,VWS V13.01,2013-01-11 12:51:00,
2013-01-11 06:56:00,65.8,64.3,30.08,SSW,210,0.0,4.0,95,0.00,,OVC075,0.00,VWS V13.01,2013-01-11 12:56:00,
2013-01-11 07:01:00,65.8,64.3,30.08,SSW,209,0.0,4.0,95,0.00,,BKN070,0.00,VWS V13.01,2013-01-11 13:01:00,
2013-01-11 07:06:00,65.9,64.1,30.08,SSW,203,0.0,1.0,94,0.00,,BKN070,0.00,VWS V13.01,2013-01-11 13:06:00,
2013-01-11 07:11:00,65.9,64.1,30.09,SSE,161,0.0,4.0,94,0.00,,BKN070,0.00,VWS V13.01,2013-01-11 13:11:00,
2013-01-11 07:16:00,66.0,64.2,30.09,South,171,1.0,4.0,94,0.00,,BKN070,0.00,VWS V13.01,2013-01-11 13:16:00,
2013-01-11 07:21:00,66.1,64.3,30.09,South,173,1.0,3.0,94,0.00,,BKN070,0.00,VWS V13.01,2013-01-11 13:21:00,
2013-01-11 07:26:00,66.2,64.4,30.10,South,179,1.0,4.0,94,0.00,,BKN070,0.00,VWS V13.01,2013-01-11 13:26:00,
2013-01-11 07:31:00,66.3,64.2,30.09,SW,221,1.0,4.0,93,0.00,,BKN070,0.00,VWS V13.01,2013-01-11 13:31:00,
2013-01-11 07:37:00,66.5,64.4,30.10,SSW,208,2.0,4.0,93,0.00,,BKN070,0.00,VWS V13.01,2013-01-11 13:37:00,
2013-01-11 07:42:00,66.7,64.9,30.10,SSW,208,3.0,5.0,94,0.00,,BKN070,0.00,VWS V13.01,2013-01-11 13:42:00,
2013-01-11 07:47:00,67.0,65.2,30.10,SSW,200,1.0,2.0,94,0.00,,BKN070,0.00,VWS V13.01,2013-01-11 13:47:00,
2013-01-11 07:52:00,67.2,65.4,30.10,SSW,201,0.0,5.0,94,0.00,,BKN070,0.00,VWS V13.01,2013-01-11 13:52:00,
2013-01-11 07:57:00,67.5,65.7,30.10,SSW,201,0.0,5.0,94,0.00,,BKN070,0.00,VWS V13.01,2013-01-11 13:57:00,
2013-01-11 08:02:00,67.7,65.6,30.10,SSW,202,0.0,1.0,93,0.00,,BKN090,0.00,VWS V13.01,2013-01-11 14:02:00,
2013-01-11 08:07:00,68.0,65.9,30.10,SSW,208,0.0,5.0,93,0.00,,BKN090,0.00,VWS V13.01,2013-01-11 14:07:00,
2013-01-11 08:12:00,68.3,66.2,30.10,SE,141,0.0,5.0,93,0.00,,BKN090,0.00,VWS V13.01,2013-01-11 14:12:00,
2013-01-11 08:17:00,68.6,66.2,30.10,SSW,194,0.0,4.0,92,0.00,,BKN090,0.00,VWS V13.01,2013-01-11 14:17:00,
2013-01-11 08:23:00,68.9,66.5,30.11,SSW,194,0.0,4.0,92,0.00,,BKN090,0.00,VWS V13.01,2013-01-11 14:23:00,
2013-01-11 08:28:00,69.1,66.4,30.11,SW,214,0.0,6.0,91,0.00,,BKN090,0.00,VWS V13.01,2013-01-11 14:28:00,
2013-01-11 08:33:00,69.1,66.4,30.11,SSW,209,0.0,0.0,91,0.00,,BKN090,0.00,VWS V13.01,2013-01-11 14:33:00,
2013-01-11 08:38:00,69.1,66.4,30.11,SSW,209,0.0,1.0,91,0.00,,BKN090,0.00,VWS V13.01,2013-01-11 14:38:00,
2013-01-11 08:43:00,69.1,66.7,30.11,SSW,201,0.0,3.0,92,0.00,,BKN090,0.00,VWS V13.01,2013-01-11 14:43:00,
2013-01-11 08:48:00,69.2,66.8,30.11,South,172,0.0,1.0,92,0.00,,BKN090,0.00,VWS V13.01,2013-01-11 14:48:00,
2013-01-11 08:53:00,69.4,67.0,30.11,South,172,1.0,2.0,92,0.00,,BKN090,0.00,VWS V13.01,2013-01-11 14:53:00,
2013-01-11 08:58:00,69.8,67.4,30.11,SSE,163,0.0,3.0,92,0.00,,BKN090,0.00,VWS V13.01,2013-01-11 14:58:00,
2013-01-11 09:03:00,70.1,67.4,30.12,South,169,0.0,5.0,91,0.00,,BKN200,0.00,VWS V13.01,2013-01-11 15:03:00,
2013-01-11 09:08:00,70.3,67.2,30.11,South,188,0.0,5.0,90,0.00,,BKN200,0.00,VWS V13.01,2013-01-11 15:08:00,
2013-01-11 09:14:00,70.7,67.9,30.11,South,188,0.0,5.0,91,0.00,,BKN200,0.00,VWS V13.01,2013-01-11 15:14:00,
2013-01-11 09:19:00,71.3,67.9,30.11,SE,140,2.0,7.0,89,0.00,,BKN200,0.00,VWS V13.01,2013-01-11 15:19:00,
2013-01-11 09:24:00,71.8,68.1,30.11,SSW,210,0.0,7.0,88,0.00,,BKN200,0.00,VWS V13.01,2013-01-11 15:24:00,
2013-01-11 09:29:00,72.1,68.0,30.11,SE,142,5.0,7.0,87,0.00,,BKN200,0.00,VWS V13.01,2013-01-11 15:29:00,
2013-01-11 09:34:00,72.1,67.7,30.11,SSW,195,1.0,7.0,86,0.00,,BKN200,0.00,VWS V13.01,2013-01-11 15:34:00,
2013-01-11 09:39:00,71.9,67.5,30.12,South,177,0.0,7.0,86,0.00,,BKN200,0.00,VWS V13.01,2013-01-11 15:39:00,
2013-01-11 09:44:00,72.0,67.6,30.11,South,179,0.0,7.0,86,0.00,,BKN200,0.00,VWS V13.01,2013-01-11 15:44:00,
2013-01-11 09:49:00,72.3,68.2,30.11,South,169,0.0,1.0,87,0.00,,BKN200,0.00,VWS V13.01,2013-01-11 15:49:00,
2013-01-11 09:54:00,72.6,67.8,30.11,SE,132,5.0,9.0,85,0.00,,BKN200,0.00,VWS V13.01,2013-01-11 15:54:00,
2013-01-11 10:00:00,73.0,67.9,30.11,SE,133,0.0,9.0,84,0.00,,BKN200,0.00,VWS V13.01,2013-01-11 16:00:00,
2013-01-11 10:05:00,73.4,67.9,30.11,SSW,199,1.0,7.0,83,0.00,,BKN200,0.00,VWS V13.01,2013-01-11 16:05:00,
2013-01-11 10:10:00,73.8,68.0,30.11,South,187,3.0,7.0,82,0.00,,BKN200,0.00,VWS V13.01,2013-01-11 16:10:00,
2013-01-11 10:15:00,74.0,68.2,30.11,SW,217,3.0,7.0,82,0.00,,BKN200,0.00,VWS V13.01,2013-01-11 16:15:00,
2013-01-11 10:20:00,74.3,67.7,30.10,SSW,206,3.0,7.0,80,0.00,,BKN200,0.00,VWS V13.01,2013-01-11 16:20:00,
2013-01-11 10:25:00,74.6,67.7,30.10,SE,136,0.0,10.0,79,0.00,,BKN200,0.00,VWS V13.01,2013-01-11 16:25:00,
2013-01-11 10:30:00,75.1,67.8,30.10,South,178,0.0,10.0,78,0.00,,BKN200,0.00,VWS V13.01,2013-01-11 16:30:00,
2013-01-11 10:35:00,75.6,68.3,30.10,South,187,0.0,6.0,78,0.00,,BKN200,0.00,VWS V13.01,2013-01-11 16:35:00,
2013-01-11 10:40:00,76.0,67.1,30.10,South,186,4.0,9.0,74,0.00,,BKN200,0.00,VWS V13.01,2013-01-11 16:40:00,
2013-01-11 10:45:00,76.2,66.9,30.11,SSW,211,2.0,10.0,73,0.00,,BKN200,0.00,VWS V13.01,2013-01-11 16:45:00,
2013-01-11 10:51:00,76.4,67.1,30.10,SSE,165,0.0,6.0,73,0.00,,BKN200,0.00,VWS V13.01,2013-01-11 16:51:00,
2013-01-11 10:56:00,76.8,67.5,30.10,SSE,168,2.0,6.0,73,0.00,,BKN200,0.00,VWS V13.01,2013-01-11 16:56:00,
2013-01-11 11:01:00,77.1,67.0,30.10,South,169,1.0,9.0,71,0.00,,BKN150,0.00,VWS V13.01,2013-01-11 17:01:00,
2013-01-11 11:06:00,77.3,66.8,30.10,SE,142,1.0,7.0,70,0.00,,BKN150,0.00,VWS V13.01,2013-01-11 17:06:00,
2013-01-11 11:11:00,77.5,66.5,30.09,SSW,207,0.0,14.0,69,0.00,,BKN150,0.00,VWS V13.01,2013-01-11 17:11:00,
2013-01-11 11:16:00,77.6,66.6,30.09,SSW,208,2.0,14.0,69,0.00,,BKN150,0.00,VWS V13.01,2013-01-11 17:16:00,
2013-01-11 11:21:00,77.8,66.8,30.09,South,175,3.0,10.0,69,0.00,,BKN150,0.00,VWS V13.01,2013-01-11 17:21:00,
2013-01-11 11:26:00,77.6,66.6,30.09,SSW,200,3.0,10.0,69,0.00,,BKN150,0.00,VWS V13.01,2013-01-11 17:26:00,
2013-01-11 11:31:00,77.6,67.5,30.09,SE,145,6.0,10.0,71,0.00,,BKN150,0.00,VWS V13.01,2013-01-11 17:31:00,
2013-01-11 11:36:00,77.6,67.5,30.08,South,175,0.0,10.0,71,0.00,,BKN150,0.00,VWS V13.01,2013-01-11 17:36:00,
2013-01-11 11:42:00,77.7,67.1,30.08,South,178,0.0,10.0,70,0.00,,BKN150,0.00,VWS V13.01,2013-01-11 17:42:00,
2013-01-11 11:47:00,77.7,67.6,30.08,South,172,0.0,4.0,71,0.00,,BKN150,0.00,VWS V13.01,2013-01-11 17:47:00,
2013-01-11 11:52:00,77.7,67.1,30.08,SSE,153,0.0,14.0,70,0.00,,BKN150,0.00,VWS V13.01,2013-01-11 17:52:00,
2013-01-11 11:57:00,77.5,67.4,30.07,SE,130,4.0,14.0,71,0.00,,BKN150,0.00,VWS V13.01,2013-01-11 17:57:00,
2013-01-11 12:02:00,77.6,67.9,30.07,SSW,194,0.0,0.0,72,0.00,,BKN200,0.00,VWS V13.01,2013-01-11 18:02:00,
2013-01-11 12:07:00,77.7,68.0,30.07,SSE,148,1.0,10.0,72,0.00,,BKN200,0.00,VWS V13.01,2013-01-11 18:07:00,
2013-01-11 12:12:00,77.9,67.8,30.07,SSW,201,0.0,10.0,71,0.00,,BKN200,0.00,VWS V13.01,2013-01-11 18:12:00,
2013-01-11 12:17:00,77.8,67.7,30.06,South,175,1.0,8.0,71,0.00,,BKN200,0.00,VWS V13.01,2013-01-11 18:17:00,
2013-01-11 12:22:00,78.1,67.9,30.06,SE,127,4.0,10.0,71,0.00,,BKN200,0.00,VWS V13.01,2013-01-11 18:22:00,
2013-01-11 12:27:00,78.6,68.0,30.06,SSW,194,0.0,12.0,70,0.00,,BKN200,0.00,VWS V13.01,2013-01-11 18:27:00,
2013-01-11 12:32:00,78.7,67.7,30.06,SE,141,0.0,11.0,69,0.00,,BKN200,0.00,VWS V13.01,2013-01-11 18:32:00,
2013-01-11 12:37:00,78.7,67.7,30.05,South,171,0.0,11.0,69,0.00,,BKN200,0.00,VWS V13.01,2013-01-11 18:37:00,
2013-01-11 12:43:00,78.7,67.7,30.05,SSW,195,1.0,11.0,69,0.00,,BKN200,0.00,VWS V13.01,2013-01-11 18:43:00,
2013-01-11 12:48:00,78.2,68.0,30.05,SSE,152,0.0,7.0,71,0.00,,BKN200,0.00,VWS V13.01,2013-01-11 18:48:00,
2013-01-11 12:53:00,78.0,68.2,30.05,SW,218,9.0,11.0,72,0.00,,BKN200,0.00,VWS V13.01,2013-01-11 18:53:00,
2013-01-11 12:58:00,77.8,68.5,30.05,South,176,0.0,11.0,73,0.00,,BKN200,0.00,VWS V13.01,2013-01-11 18:58:00,
2013-01-11 13:03:00,78.0,68.7,30.05,South,171,0.0,11.0,73,0.00,,BKN200,0.00,VWS V13.01,2013-01-11 19:03:00,
2013-01-11 13:08:00,78.4,69.0,30.04,ESE,119,9.0,11.0,73,0.00,,BKN200,0.00,VWS V13.01,2013-01-11 19:08:00,
2013-01-11 13:13:00,78.7,69.3,30.04,SW,220,4.0,13.0,73,0.00,,BKN200,0.00,VWS V13.01,2013-01-11 19:13:00,
2013-01-11 13:18:00,78.7,68.9,30.04,South,172,0.0,4.0,72,0.00,,BKN200,0.00,VWS V13.01,2013-01-11 19:18:00,
2013-01-11 13:23:00,78.6,69.2,30.04,SSE,165,5.0,11.0,73,0.00,,BKN200,0.00,VWS V13.01,2013-01-11 19:23:00,
2013-01-11 13:28:00,78.4,69.0,30.04,SSW,209,0.0,11.0,73,0.00,,BKN200,0.00,VWS V13.01,2013-01-11 19:28:00,
2013-01-11 13:33:00,78.6,69.2,30.04,ESE,113,4.0,9.0,73,0.00,,BKN200,0.00,VWS V13.01,2013-01-11 19:33:00,
2013-01-11 13:39:00,78.7,69.7,30.03,SSW,196,3.0,9.0,74,0.00,,BKN200,0.00,VWS V13.01,2013-01-11 19:39:00,
2013-01-11 13:44:00,78.9,69.5,30.03,SSE,153,7.0,9.0,73,0.00,,BKN200,0.00,VWS V13.01,2013-01-11 19:44:00,
2013-01-11 13:49:00,78.7,69.3,30.03,SW,219,3.0,19.0,73,0.00,,BKN200,0.00,VWS V13.01,2013-01-11 19:49:00,
2013-01-11 13:54:00,78.3,68.9,30.03,SSE,156,0.0,19.0,73,0.00,,BKN200,0.00,VWS V13.01,2013-01-11 19:54:00,
2013-01-11 13:59:00,78.3,69.3,30.03,SW,217,0.0,19.0,74,0.00,,BKN200,0.00,VWS V13.01,2013-01-11 19:59:00,
2013-01-11 14:04:00,78.4,69.4,30.03,WSW,249,3.0,10.0,74,0.00,,BKN200,0.00,VWS V13.01,2013-01-11 20:04:00,
2013-01-11 14:09:00,78.6,69.6,30.03,SSW,200,2.0,14.0,74,0.00,,BKN200,0.00,VWS V13.01,2013-01-11 20:09:00,
2013-01-11 14:14:00,78.7,69.7,30.03,SSE,164,2.0,14.0,74,0.00,,BKN200,0.00,VWS V13.01,2013-01-11 20:14:00,
2013-01-11 14:19:00,78.7,69.7,30.03,South,169,0.0,11.0,74,0.00,,BKN200,0.00,VWS V13.01,2013-01-11 20:19:00,
2013-01-11 14:24:00,78.2,69.2,30.03,SE,130,1.0,16.0,74,0.00,,BKN200,0.00,VWS V13.01,2013-01-11 20:24:00,
2013-01-11 14:29:00,77.5,69.3,30.03,SSE,157,0.0,16.0,76,0.00,,BKN200,0.00,VWS V13.01,2013-01-11 20:29:00,
2013-01-11 14:35:00,77.2,69.4,30.03,South,172,1.0,13.0,77,0.00,,BKN200,0.00,VWS V13.01,2013-01-11 20:35:00,
2013-01-11 14:40:00,77.3,69.5,30.04,SW,218,2.0,13.0,77,0.00,,BKN200,0.00,VWS V13.01,2013-01-11 20:40:00,
2013-01-11 14:45:00,77.2,69.4,30.03,SE,146,0.0,13.0,77,0.00,,BKN200,0.00,VWS V13.01,2013-01-11 20:45:00,
2013-01-11 14:50:00,77.5,69.7,30.04,SSW,209,10.0,10.0,77,0.00,,BKN200,0.00,VWS V13.01,2013-01-11 20:50:00,
2013-01-11 14:55:00,77.7,69.5,30.03,SE,140,0.0,11.0,76,0.00,,BKN200,0.00,VWS V13.01,2013-01-11 20:55:00,
2013-01-11 15:00:00,77.8,69.6,30.04,SSE,149,2.0,11.0,76,0.00,,BKN200,0.00,VWS V13.01,2013-01-11 21:00:00,
2013-01-11 15:05:00,77.6,69.8,30.03,SSE,154,4.0,7.0,77,0.00,,OVC200,0.00,VWS V13.01,2013-01-11 21:05:00,
2013-01-11 15:10:00,77.4,69.6,30.03,SE,145,0.0,7.0,77,0.00,,OVC200,0.00,VWS V13.01,2013-01-11 21:10:00,
2013-01-11 15:15:00,77.2,69.8,30.03,SSW,209,0.0,7.0,78,0.00,,OVC200,0.00,VWS V13.01,2013-01-11 21:15:00,
2013-01-11 15:20:00,77.0,69.6,30.03,South,189,0.0,7.0,78,0.00,,OVC200,0.00,VWS V13.01,2013-01-11 21:20:00,
2013-01-11 15:25:00,76.6,69.6,30.03,South,190,0.0,7.0,79,0.00,,OVC200,0.00,VWS V13.01,2013-01-11 21:25:00,
2013-01-11 15:30:00,76.3,69.7,30.03,SSW,200,0.0,10.0,80,0.00,,OVC200,0.00,VWS V13.01,2013-01-11 21:30:00,
2013-01-11 15:35:00,76.1,69.5,30.03,SSW,205,0.0,6.0,80,0.00,,OVC200,0.00,VWS V13.01,2013-01-11 21:35:00,
2013-01-11 15:40:00,75.9,69.7,30.03,South,178,0.0,6.0,81,0.00,,OVC200,0.00,VWS V13.01,2013-01-11 21:40:00,
2013-01-11 15:46:00,75.7,69.5,30.03,SSW,208,2.0,8.0,81,0.00,,OVC200,0.00,VWS V13.01,2013-01-11 21:46:00,
2013-01-11 15:51:00,75.5,69.6,30.04,SSW,202,0.0,5.0,82,0.00,,OVC200,0.00,VWS V13.01,2013-01-11 21:51:00,
2013-01-11 15:56:00,75.3,69.4,30.04,South,173,1.0,5.0,82,0.00,,OVC200,0.00,VWS V13.01,2013-01-11 21:56:00,
2013-01-11 16:01:00,75.0,69.5,30.04,South,171,0.0,6.0,83,0.00,,OVC200,0.00,VWS V13.01,2013-01-11 22:01:00,
2013-01-11 16:06:00,74.8,69.7,30.04,South,172,2.0,3.0,84,0.00,,OVC200,0.00,VWS V13.01,2013-01-11 22:06:00,
2013-01-11 16:11:00,74.7,69.6,30.03,SW,217,0.0,5.0,84,0.00,,OVC200,0.00,VWS V13.01,2013-01-11 22:11:00,
2013-01-11 16:16:00,74.6,69.8,30.03,SSE,156,0.0,5.0,85,0.00,,OVC200,0.00,VWS V13.01,2013-01-11 22:16:00,
2013-01-11 16:21:00,74.5,69.7,30.03,SE,144,0.0,7.0,85,0.00,,OVC200,0.00,VWS V13.01,2013-01-11 22:21:00,
2013-01-11 16:26:00,74.4,69.6,30.04,SSE,162,2.0,9.0,85,0.00,,OVC200,0.00,VWS V13.01,2013-01-11 22:26:00,
2013-01-11 16:31:00,74.2,69.8,30.04,SSE,147,0.0,0.0,86,0.00,,OVC200,0.00,VWS V13.01,2013-01-11 22:31:00,
2013-01-11 16:37:00,74.0,69.6,30.04,SE,138,4.0,7.0,86,0.00,,OVC200,0.00,VWS V13.01,2013-01-11 22:37:00,
2013-01-11 16:42:00,73.8,69.7,30.05,SSE,148,0.0,7.0,87,0.00,,OVC200,0.00,VWS V13.01,2013-01-11 22:42:00,
2013-01-11 16:47:00,73.6,69.5,30.05,SSW,198,0.0,0.0,87,0.00,,OVC200,0.00,VWS V13.01,2013-01-11 22:47:00,
2013-01-11 16:52:00,73.4,69.6,30.05,SE,136,0.0,6.0,88,0.00,,OVC200,0.00,VWS V13.01,2013-01-11 22:52:00,
2013-01-11 16:57:00,73.2,69.4,30.05,South,186,0.0,6.0,88,0.00,,OVC200,0.00,VWS V13.01,2013-01-11 22:57:00,
2013-01-11 17:02:00,73.0,69.2,30.04,SE,140,0.0,0.0,88,0.00,,OVC200,0.00,VWS V13.01,2013-01-11 23:02:00,
2013-01-11 17:07:00,72.8,69.4,30.05,SE,137,2.0,6.0,89,0.00,,OVC200,0.00,VWS V13.01,2013-01-11 23:07:00,
2013-01-11 17:12:00,72.6,69.5,30.05,SE,128,3.0,6.0,90,0.00,,OVC200,0.00,VWS V13.01,2013-01-11 23:12:00,
2013-01-11 17:17:00,72.3,69.2,30.05,SE,142,0.0,4.0,90,0.00,,OVC200,0.00,VWS V13.01,2013-01-11 23:17:00,
2013-01-11 17:23:00,72.1,69.0,30.04,SE,142,0.0,5.0,90,0.00,,OVC200,0.00,VWS V13.01,2013-01-11 23:23:00,
2013-01-11 17:28:00,71.9,69.1,30.05,SE,138,0.0,5.0,91,0.00,,OVC200,0.00,VWS V13.01,2013-01-11 23:28:00,
2013-01-11 17:33:00,71.7,68.9,30.05,SE,138,0.0,2.0,91,0.00,,OVC013,0.00,VWS V13.01,2013-01-11 23:33:00,
2013-01-11 17:38:00,71.6,68.8,30.05,South,173,0.0,3.0,91,0.00,,OVC013,0.00,VWS V13.01,2013-01-11 23:38:00,
2013-01-11 17:43:00,71.5,69.1,30.06,South,173,0.0,3.0,92,0.00,,OVC013,0.00,VWS V13.01,2013-01-11 23:43:00,
2013-01-11 17:48:00,71.5,69.1,30.06,SE,143,0.0,5.0,92,0.00,,OVC013,0.00,VWS V13.01,2013-01-11 23:48:00,
2013-01-11 17:53:00,71.4,69.0,30.06,SE,137,5.0,6.0,92,0.00,,OVC013,0.00,VWS V13.01,2013-01-11 23:53:00,
2013-01-11 17:58:00,71.3,68.9,30.05,SE,140,0.0,6.0,92,0.00,,OVC013,0.00,VWS V13.01,2013-01-11 23:58:00,
2013-01-11 18:03:00,71.3,68.9,30.05,SE,133,4.0,5.0,92,0.00,,OVC012,0.00,VWS V13.01,2013-01-12 00:03:00,
2013-01-11 18:08:00,71.1,68.7,30.05,SSE,148,0.0,7.0,92,0.00,,OVC012,0.00,VWS V13.01,2013-01-12 00:08:00,
2013-01-11 18:13:00,71.0,68.9,30.05,SE,136,0.0,7.0,93,0.00,,OVC012,0.00,VWS V13.01,2013-01-12 00:13:00,
2013-01-11 18:19:00,70.9,68.8,30.06,SE,136,0.0,0.0,93,0.00,,OVC012,0.00,VWS V13.01,2013-01-12 00:19:00,
2013-01-11 18:24:00,70.8,68.7,30.06,SE,138,2.0,5.0,93,0.00,,OVC012,0.00,VWS V13.01,2013-01-12 00:24:00,
2013-01-11 18:29:00,70.6,68.5,30.06,SE,138,0.0,5.0,93,0.00,,OVC012,0.00,VWS V13.01,2013-01-12 00:29:00,
2013-01-11 18:34:00,70.5,68.4,30.06,SE,138,0.0,3.0,93,0.00,,OVC012,0.00,VWS V13.01,2013-01-12 00:34:00,
2013-01-11 18:39:00,70.4,68.3,30.06,SE,128,2.0,6.0,93,0.00,,OVC012,0.00,VWS V13.01,2013-01-12 00:39:00,
2013-01-11 18:44:00,70.2,68.4,30.06,SE,130,2.0,6.0,94,0.00,,OVC012,0.00,VWS V13.01,2013-01-12 00:44:00,
2013-01-11 18:49:00,70.1,68.3,30.06,SE,132,0.0,0.0,94,0.00,,OVC012,0.00,VWS V13.01,2013-01-12 00:49:00,
2013-01-11 18:54:00,70.0,68.2,30.06,SE,142,0.0,7.0,94,0.00,,OVC012,0.00,VWS V13.01,2013-01-12 00:54:00,
2013-01-11 18:59:00,69.9,68.1,30.06,SE,141,0.0,7.0,94,0.00,,OVC012,0.00,VWS V13.01,2013-01-12 00:59:00,
2013-01-11 19:04:00,69.8,68.0,30.06,SE,137,0.0,6.0,94,0.00,,OVC005,0.00,VWS V13.01,2013-01-12 01:04:00,
2013-01-11 19:09:00,69.7,67.9,30.06,SE,136,1.0,6.0,94,0.00,,OVC005,0.00,VWS V13.01,2013-01-12 01:09:00,
2013-01-11 19:14:00,69.5,67.7,30.06,SE,125,1.0,9.0,94,0.00,,OVC005,0.00,VWS V13.01,2013-01-12 01:14:00,
2013-01-11 19:19:00,69.4,67.6,30.06,SE,143,0.0,7.0,94,0.00,,OVC005,0.00,VWS V13.01,2013-01-12 01:19:00,
2013-01-11 19:24:00,69.3,67.5,30.06,SE,139,0.0,7.0,94,0.00,,OVC005,0.00,VWS V13.01,2013-01-12 01:24:00,
2013-01-11 19:29:00,69.1,67.6,30.06,SE,136,0.0,7.0,95,0.00,,OVC005,0.00,VWS V13.01,2013-01-12 01:29:00,
2013-01-11 19:34:00,69.1,67.6,30.06,SE,134,0.0,7.0,95,0.00,,OVC005,0.00,VWS V13.01,2013-01-12 01:34:00,
2013-01-11 19:39:00,69.0,67.5,30.06,ESE,123,0.0,7.0,95,0.00,,OVC005,0.00,VWS V13.01,2013-01-12 01:39:00,
2013-01-11 19:44:00,69.0,67.5,30.06,SE,144,1.0,7.0,95,0.00,,OVC005,0.00,VWS V13.01,2013-01-12 01:44:00,
2013-01-11 19:49:00,68.9,67.4,30.07,SSE,165,0.0,1.0,95,0.00,,OVC005,0.00,VWS V13.01,2013-01-12 01:49:00,
2013-01-11 19:55:00,68.9,67.4,30.07,SSE,159,3.0,9.0,95,0.00,,OVC005,0.00,VWS V13.01,2013-01-12 01:55:00,
2013-01-11 20:00:00,68.9,67.4,30.07,SSE,150,0.0,9.0,95,0.00,,OVC005,0.00,VWS V13.01,2013-01-12 02:00:00,
2013-01-11 20:05:00,68.8,67.3,30.07,SSW,203,0.0,6.0,95,0.00,,,0.00,VWS V13.01,2013-01-12 02:05:00,
2013-01-11 20:10:00,68.8,67.3,30.07,SSE,157,3.0,6.0,95,0.00,,,0.00,VWS V13.01,2013-01-12 02:10:00,
2013-01-11 20:15:00,68.8,67.3,30.07,SE,145,2.0,6.0,95,0.00,,,0.00,VWS V13.01,2013-01-12 02:15:00,
2013-01-11 20:20:00,68.8,67.3,30.07,SE,145,1.0,1.0,95,0.00,,,0.00,VWS V13.01,2013-01-12 02:20:00,
2013-01-11 20:25:00,68.8,67.3,30.08,SE,136,0.0,5.0,95,0.00,,,0.00,VWS V13.01,2013-01-12 02:25:00,
2013-01-11 20:30:00,68.8,67.3,30.07,SE,144,0.0,5.0,95,0.00,,,0.00,VWS V13.01,2013-01-12 02:30:00,
2013-01-11 20:35:00,68.8,67.3,30.07,ESE,110,0.0,5.0,95,0.00,,,0.00,VWS V13.01,2013-01-12 02:35:00,
2013-01-11 20:40:00,68.7,67.2,30.07,ESE,115,4.0,5.0,95,0.00,,,0.00,VWS V13.01,2013-01-12 02:40:00,
2013-01-11 20:45:00,68.7,67.2,30.07,ESE,117,0.0,5.0,95,0.00,,,0.00,VWS V13.01,2013-01-12 02:45:00,
2013-01-11 20:50:00,68.7,67.5,30.07,SE,136,5.0,5.0,96,0.00,,,0.00,VWS V13.01,2013-01-12 02:50:00,
2013-01-11 20:55:00,68.7,67.5,30.07,ESE,122,0.0,5.0,96,0.00,,,0.00,VWS V13.01,2013-01-12 02:55:00,
2013-01-11 21:00:00,68.7,67.5,30.07,SSE,149,0.0,5.0,96,0.00,,,0.00,VWS V13.01,2013-01-12 03:00:00,
2013-01-11 21:05:00,68.6,67.4,30.07,SSE,149,0.0,1.0,96,0.00,,,0.00,VWS V13.01,2013-01-12 03:05:00,
2013-01-11 21:10:00,68.6,67.4,30.08,SE,137,2.0,5.0,96,0.00,,,0.00,VWS V13.01,2013-01-12 03:10:00,
2013-01-11 21:15:00,68.6,67.4,30.08,SE,137,0.0,5.0,96,0.00,,,0.00,VWS V13.01,2013-01-12 03:15:00,
2013-01-11 21:20:00,68.6,67.4,30.07,SE,137,0.0,3.0,96,0.00,,,0.00,VWS V13.01,2013-01-12 03:20:00,
2013-01-11 21:25:00,68.5,67.3,30.07,SE,143,2.0,5.0,96,0.00,,,0.00,VWS V13.01,2013-01-12 03:25:00,
2013-01-11 21:30:00,68.5,67.3,30.07,SE,142,0.0,5.0,96,0.00,,,0.00,VWS V13.01,2013-01-12 03:30:00,
2013-01-11 21:35:00,68.5,67.3,30.07,SE,142,0.0,3.0,96,0.00,,,0.00,VWS V13.01,2013-01-12 03:35:00,
2013-01-11 21:41:00,68.4,67.2,30.07,SE,138,1.0,5.0,96,0.00,,,0.00,VWS V13.01,2013-01-12 03:41:00,
2013-01-11 21:46:00,68.4,67.2,30.07,SSE,150,3.0,7.0,96,0.00,,,0.00,VWS V13.01,2013-01-12 03:46:00,
2013-01-11 21:51:00,68.3,67.1,30.07,SE,136,0.0,6.0,96,0.00,,,0.00,VWS V13.01,2013-01-12 03:51:00,
2013-01-11 21:56:00,68.2,67.0,30.07,SE,129,3.0,6.0,96,0.00,,,0.00,VWS V13.01,2013-01-12 03:56:00,
2013-01-11 22:01:00,68.0,66.8,30.06,SE,136,0.0,6.0,96,0.00,,,0.00,VWS V13.01,2013-01-12 04:01:00,
2013-01-11 22:06:00,67.9,66.7,30.07,SE,146,2.0,5.0,96,0.00,,,0.00,VWS V13.01,2013-01-12 04:06:00,
2013-01-11 22:11:00,67.8,66.6,30.07,SE,146,1.0,6.0,96,0.00,,,0.00,VWS V13.01,2013-01-12 04:11:00,
2013-01-11 22:16:00,67.7,66.5,30.07,SSE,151,2.0,6.0,96,0.00,,,0.00,VWS V13.01,2013-01-12 04:16:00,
2013-01-11 22:21:00,67.6,66.4,30.07,SSE,147,5.0,5.0,96,0.00,,,0.00,VWS V13.01,2013-01-12 04:21:00,
2013-01-11 22:26:00,67.6,66.4,30.07,SE,130,5.0,5.0,96,0.00,,,0.00,VWS V13.01,2013-01-12 04:26:00,
2013-01-11 22:31:00,67.5,66.3,30.07,SE,141,5.0,7.0,96,0.00,,,0.00,VWS V13.01,2013-01-12 04:31:00,
2013-01-11 22:36:00,67.5,66.3,30.07,SE,137,1.0,5.0,96,0.00,,,0.00,VWS V13.01,2013-01-12 04:36:00,
2013-01-11 22:41:00,67.4,66.2,30.07,SE,141,4.0,5.0,96,0.00,,,0.00,VWS V13.01,2013-01-12 04:41:00,
2013-01-11 22:46:00,67.4,66.2,30.07,SSE,150,1.0,5.0,96,0.00,,,0.00,VWS V13.01,2013-01-12 04:46:00,
2013-01-11 22:51:00,67.4,66.2,30.07,SSE,165,0.0,3.0,96,0.00,,,0.00,VWS V13.01,2013-01-12 04:51:00,
2013-01-11 22:56:00,67.4,66.2,30.07,SSE,154,2.0,4.0,96,0.00,,,0.00,VWS V13.01,2013-01-12 04:56:00,
2013-01-11 23:01:00,67.4,66.2,30.07,SSE,153,2.0,4.0,96,0.00,,,0.00,VWS V13.01,2013-01-12 05:01:00,
2013-01-11 23:02:00,67.4,66.2,30.07,SE,138,0.0,0.0,96,0.00,,,0.00,VWS V13.01,2013-01-12 05:02:00,
2013-01-11 23:07:00,67.4,66.2,30.07,SE,140,0.0,4.0,96,0.00,,,0.00,VWS V13.01,2013-01-12 05:07:00,
2013-01-11 23:13:00,67.4,66.2,30.07,SE,135,2.0,5.0,96,0.00,,,0.00,VWS V13.01,2013-01-12 05:13:00,
2013-01-11 23:18:00,67.4,66.2,30.07,SE,132,1.0,5.0,96,0.00,,,0.00,VWS V13.01,2013-01-12 05:18:00,
2013-01-11 23:23:00,67.5,66.3,30.07,SSE,147,2.0,5.0,96,0.00,,,0.00,VWS V13.01,2013-01-12 05:23:00,
2013-01-11 23:28:00,67.5,66.3,30.07,SE,128,0.0,5.0,96,0.00,,,0.00,VWS V13.01,2013-01-12 05:28:00,
2013-01-11 23:33:00,67.6,66.7,30.07,SE,127,0.0,7.0,97,0.00,,,0.00,VWS V13.01,2013-01-12 05:33:00,
2013-01-11 23:38:00,67.6,66.7,30.06,ESE,120,0.0,7.0,97,0.00,,,0.00,VWS V13.01,2013-01-12 05:38:00,
2013-01-11 23:43:00,67.6,66.7,30.06,SE,130,0.0,7.0,97,0.00,,,0.00,VWS V13.01,2013-01-12 05:43:00,
2013-01-11 23:48:00,67.7,66.8,30.06,SE,130,0.0,0.0,97,0.00,,,0.00,VWS V13.01,2013-01-12 05:48:00,
2013-01-11 23:53:00,67.7,66.8,30.06,SSE,155,0.0,4.0,97,0.00,,,0.00,VWS V13.01,2013-01-12 05:53:00,
2013-01-11 23:58:00,67.8,66.9,30.06,SE,138,0.0,7.0,97,0.00,,,0.00,VWS V13.01,2013-01-12 05:58:00,